sensor_id;sensor_type;location;lat;lon;timestamp;P1;durP1;ratioP1;P2;durP2;ratioP2
32399;SDS011;45045;45.440;9.178;2024-01-27T00:01:49;100.53;;;73.15;;
32399;SDS011;45045;45.440;9.178;2024-01-27T00:04:15;98.57;;;73.20;;
32399;SDS011;45045;45.440;9.178;2024-01-27T00:06:41;101.15;;;72.72;;
32399;SDS011;45045;45.440;9.178;2024-01-27T00:09:06;97.63;;;71.57;;
32399;SDS011;45045;45.440;9.178;2024-01-27T00:11:32;102.95;;;74.32;;
32399;SDS011;45045;45.440;9.178;2024-01-27T00:13:58;99.70;;;71.63;;
32399;SDS011;45045;45.440;9.178;2024-01-27T00:16:28;100.55;;;72.07;;
32399;SDS011;45045;45.440;9.178;2024-01-27T00:18:53;101.63;;;72.40;;
32399;SDS011;45045;45.440;9.178;2024-01-27T00:21:19;101.78;;;71.80;;
32399;SDS011;45045;45.440;9.178;2024-01-27T00:23:44;97.57;;;73.22;;
32399;SDS011;45045;45.440;9.178;2024-01-27T00:26:10;95.60;;;70.28;;
32399;SDS011;45045;45.440;9.178;2024-01-27T00:28:36;97.28;;;70.65;;
32399;SDS011;45045;45.440;9.178;2024-01-27T00:31:02;101.95;;;71.88;;
32399;SDS011;45045;45.440;9.178;2024-01-27T00:33:27;102.30;;;70.35;;
32399;SDS011;45045;45.440;9.178;2024-01-27T00:35:53;95.97;;;70.38;;
32399;SDS011;45045;45.440;9.178;2024-01-27T00:38:19;97.45;;;69.40;;
32399;SDS011;45045;45.440;9.178;2024-01-27T00:40:44;97.80;;;68.60;;
32399;SDS011;45045;45.440;9.178;2024-01-27T00:43:10;95.47;;;68.03;;
32399;SDS011;45045;45.440;9.178;2024-01-27T00:45:36;102.45;;;71.30;;
32399;SDS011;45045;45.440;9.178;2024-01-27T00:48:01;101.22;;;68.53;;
32399;SDS011;45045;45.440;9.178;2024-01-27T00:50:27;93.90;;;66.97;;
32399;SDS011;45045;45.440;9.178;2024-01-27T00:52:56;95.85;;;69.57;;
32399;SDS011;45045;45.440;9.178;2024-01-27T00:55:21;102.38;;;72.03;;
32399;SDS011;45045;45.440;9.178;2024-01-27T00:57:47;93.95;;;71.07;;
32399;SDS011;45045;45.440;9.178;2024-01-27T01:00:13;96.15;;;70.40;;
32399;SDS011;45045;45.440;9.178;2024-01-27T01:02:39;94.57;;;70.85;;
32399;SDS011;45045;45.440;9.178;2024-01-27T01:05:05;101.60;;;71.90;;
32399;SDS011;45045;45.440;9.178;2024-01-27T01:07:31;94.32;;;70.80;;
32399;SDS011;45045;45.440;9.178;2024-01-27T01:09:57;94.85;;;69.90;;
32399;SDS011;45045;45.440;9.178;2024-01-27T01:12:23;95.63;;;69.90;;
32399;SDS011;45045;45.440;9.178;2024-01-27T01:14:50;97.75;;;71.63;;
32399;SDS011;45045;45.440;9.178;2024-01-27T01:17:16;89.47;;;69.68;;
32399;SDS011;45045;45.440;9.178;2024-01-27T01:19:42;92.55;;;68.47;;
32399;SDS011;45045;45.440;9.178;2024-01-27T01:22:08;98.18;;;70.75;;
32399;SDS011;45045;45.440;9.178;2024-01-27T01:24:33;95.30;;;69.90;;
32399;SDS011;45045;45.440;9.178;2024-01-27T01:26:59;90.53;;;68.07;;
32399;SDS011;45045;45.440;9.178;2024-01-27T01:29:25;93.15;;;70.15;;
32399;SDS011;45045;45.440;9.178;2024-01-27T01:31:51;93.50;;;70.07;;
32399;SDS011;45045;45.440;9.178;2024-01-27T01:34:17;91.18;;;67.28;;
32399;SDS011;45045;45.440;9.178;2024-01-27T01:36:42;96.55;;;69.78;;
32399;SDS011;45045;45.440;9.178;2024-01-27T01:39:09;89.82;;;69.38;;
32399;SDS011;45045;45.440;9.178;2024-01-27T01:41:35;95.22;;;69.10;;
32399;SDS011;45045;45.440;9.178;2024-01-27T01:44:01;95.10;;;70.18;;
32399;SDS011;45045;45.440;9.178;2024-01-27T01:46:27;92.05;;;70.57;;
32399;SDS011;45045;45.440;9.178;2024-01-27T01:48:53;97.03;;;70.18;;
32399;SDS011;45045;45.440;9.178;2024-01-27T01:51:19;93.93;;;69.70;;
32399;SDS011;45045;45.440;9.178;2024-01-27T01:53:46;96.95;;;70.05;;
32399;SDS011;45045;45.440;9.178;2024-01-27T01:56:14;93.75;;;68.32;;
32399;SDS011;45045;45.440;9.178;2024-01-27T01:58:40;91.03;;;67.60;;
32399;SDS011;45045;45.440;9.178;2024-01-27T02:01:06;86.93;;;65.95;;
32399;SDS011;45045;45.440;9.178;2024-01-27T02:03:32;83.55;;;64.03;;
32399;SDS011;45045;45.440;9.178;2024-01-27T02:05:58;84.53;;;64.63;;
32399;SDS011;45045;45.440;9.178;2024-01-27T02:08:23;87.45;;;64.40;;
32399;SDS011;45045;45.440;9.178;2024-01-27T02:10:49;86.85;;;62.88;;
32399;SDS011;45045;45.440;9.178;2024-01-27T02:13:18;88.65;;;64.68;;
32399;SDS011;45045;45.440;9.178;2024-01-27T02:15:45;84.30;;;63.55;;
32399;SDS011;45045;45.440;9.178;2024-01-27T02:18:12;86.70;;;63.78;;
32399;SDS011;45045;45.440;9.178;2024-01-27T02:20:38;84.65;;;63.65;;
32399;SDS011;45045;45.440;9.178;2024-01-27T02:23:04;84.35;;;62.22;;
32399;SDS011;45045;45.440;9.178;2024-01-27T02:25:31;79.05;;;60.97;;
32399;SDS011;45045;45.440;9.178;2024-01-27T02:27:57;80.00;;;61.22;;
32399;SDS011;45045;45.440;9.178;2024-01-27T02:30:23;79.30;;;60.08;;
32399;SDS011;45045;45.440;9.178;2024-01-27T02:32:48;77.72;;;60.05;;
32399;SDS011;45045;45.440;9.178;2024-01-27T02:35:14;77.63;;;59.97;;
32399;SDS011;45045;45.440;9.178;2024-01-27T02:37:41;79.00;;;61.45;;
32399;SDS011;45045;45.440;9.178;2024-01-27T02:40:07;73.00;;;59.35;;
32399;SDS011;45045;45.440;9.178;2024-01-27T02:42:34;76.13;;;57.40;;
32399;SDS011;45045;45.440;9.178;2024-01-27T02:45:00;75.30;;;57.08;;
32399;SDS011;45045;45.440;9.178;2024-01-27T02:47:26;69.25;;;54.90;;
32399;SDS011;45045;45.440;9.178;2024-01-27T02:49:52;72.13;;;56.17;;
32399;SDS011;45045;45.440;9.178;2024-01-27T02:52:17;67.38;;;53.00;;
32399;SDS011;45045;45.440;9.178;2024-01-27T02:57:09;67.95;;;53.13;;
32399;SDS011;45045;45.440;9.178;2024-01-27T02:59:35;75.05;;;55.70;;
32399;SDS011;45045;45.440;9.178;2024-01-27T03:02:00;76.63;;;52.03;;
32399;SDS011;45045;45.440;9.178;2024-01-27T03:04:26;77.47;;;52.60;;
32399;SDS011;45045;45.440;9.178;2024-01-27T03:06:52;88.55;;;49.95;;
32399;SDS011;45045;45.440;9.178;2024-01-27T03:09:17;74.47;;;48.13;;
32399;SDS011;45045;45.440;9.178;2024-01-27T03:11:43;87.97;;;47.95;;
32399;SDS011;45045;45.440;9.178;2024-01-27T03:14:08;92.20;;;48.35;;
32399;SDS011;45045;45.440;9.178;2024-01-27T03:16:35;91.45;;;46.13;;
32399;SDS011;45045;45.440;9.178;2024-01-27T03:19:01;103.70;;;46.25;;
32399;SDS011;45045;45.440;9.178;2024-01-27T03:21:27;89.47;;;44.80;;
32399;SDS011;45045;45.440;9.178;2024-01-27T03:23:52;61.72;;;44.22;;
32399;SDS011;45045;45.440;9.178;2024-01-27T03:26:18;61.83;;;46.70;;
32399;SDS011;45045;45.440;9.178;2024-01-27T03:28:43;66.35;;;45.28;;
32399;SDS011;45045;45.440;9.178;2024-01-27T03:31:09;89.38;;;45.92;;
32399;SDS011;45045;45.440;9.178;2024-01-27T03:33:35;85.72;;;47.47;;
32399;SDS011;45045;45.440;9.178;2024-01-27T03:36:00;63.58;;;46.90;;
32399;SDS011;45045;45.440;9.178;2024-01-27T03:38:26;60.13;;;45.53;;
32399;SDS011;45045;45.440;9.178;2024-01-27T03:40:51;64.10;;;46.80;;
32399;SDS011;45045;45.440;9.178;2024-01-27T03:43:17;81.05;;;46.90;;
32399;SDS011;45045;45.440;9.178;2024-01-27T03:45:43;133.55;;;48.20;;
32399;SDS011;45045;45.440;9.178;2024-01-27T03:48:08;84.68;;;48.67;;
32399;SDS011;45045;45.440;9.178;2024-01-27T03:50:34;82.85;;;47.00;;
32399;SDS011;45045;45.440;9.178;2024-01-27T03:52:59;62.28;;;47.88;;
32399;SDS011;45045;45.440;9.178;2024-01-27T03:55:25;80.47;;;49.00;;
32399;SDS011;45045;45.440;9.178;2024-01-27T03:57:51;90.47;;;47.40;;
32399;SDS011;45045;45.440;9.178;2024-01-27T04:00:16;66.95;;;46.58;;
32399;SDS011;45045;45.440;9.178;2024-01-27T04:02:42;73.25;;;48.05;;
32399;SDS011;45045;45.440;9.178;2024-01-27T04:05:08;68.20;;;47.72;;
32399;SDS011;45045;45.440;9.178;2024-01-27T04:07:33;96.97;;;47.88;;
32399;SDS011;45045;45.440;9.178;2024-01-27T04:09:59;78.70;;;49.35;;
32399;SDS011;45045;45.440;9.178;2024-01-27T04:12:26;66.93;;;46.67;;
32399;SDS011;45045;45.440;9.178;2024-01-27T04:14:52;73.13;;;46.00;;
32399;SDS011;45045;45.440;9.178;2024-01-27T04:17:17;135.77;;;49.05;;
32399;SDS011;45045;45.440;9.178;2024-01-27T04:19:43;91.47;;;50.30;;
32399;SDS011;45045;45.440;9.178;2024-01-27T04:22:09;98.35;;;50.70;;
32399;SDS011;45045;45.440;9.178;2024-01-27T04:24:34;98.30;;;50.10;;
32399;SDS011;45045;45.440;9.178;2024-01-27T04:27:00;75.82;;;50.70;;
32399;SDS011;45045;45.440;9.178;2024-01-27T04:29:27;88.60;;;51.15;;
32399;SDS011;45045;45.440;9.178;2024-01-27T04:31:53;89.70;;;51.47;;
32399;SDS011;45045;45.440;9.178;2024-01-27T04:34:18;86.95;;;49.67;;
32399;SDS011;45045;45.440;9.178;2024-01-27T04:36:44;100.47;;;51.08;;
32399;SDS011;45045;45.440;9.178;2024-01-27T04:39:09;87.57;;;52.05;;
32399;SDS011;45045;45.440;9.178;2024-01-27T04:41:40;84.90;;;51.75;;
32399;SDS011;45045;45.440;9.178;2024-01-27T04:44:07;65.40;;;51.22;;
32399;SDS011;45045;45.440;9.178;2024-01-27T04:46:33;94.13;;;50.53;;
32399;SDS011;45045;45.440;9.178;2024-01-27T04:48:59;73.90;;;49.75;;
32399;SDS011;45045;45.440;9.178;2024-01-27T04:51:24;95.03;;;49.70;;
32399;SDS011;45045;45.440;9.178;2024-01-27T04:53:50;70.80;;;50.65;;
32399;SDS011;45045;45.440;9.178;2024-01-27T04:56:16;85.28;;;52.65;;
32399;SDS011;45045;45.440;9.178;2024-01-27T04:58:41;99.57;;;51.25;;
32399;SDS011;45045;45.440;9.178;2024-01-27T05:01:07;73.43;;;52.22;;
32399;SDS011;45045;45.440;9.178;2024-01-27T05:03:33;91.65;;;51.95;;
32399;SDS011;45045;45.440;9.178;2024-01-27T05:05:59;85.47;;;52.15;;
32399;SDS011;45045;45.440;9.178;2024-01-27T05:08:25;105.55;;;52.80;;
32399;SDS011;45045;45.440;9.178;2024-01-27T05:10:51;71.30;;;52.92;;
32399;SDS011;45045;45.440;9.178;2024-01-27T05:13:16;84.35;;;52.20;;
32399;SDS011;45045;45.440;9.178;2024-01-27T05:15:42;79.97;;;54.67;;
32399;SDS011;45045;45.440;9.178;2024-01-27T05:18:07;80.38;;;55.17;;
32399;SDS011;45045;45.440;9.178;2024-01-27T05:20:33;85.43;;;54.22;;
32399;SDS011;45045;45.440;9.178;2024-01-27T05:22:59;120.20;;;54.03;;
32399;SDS011;45045;45.440;9.178;2024-01-27T05:25:24;124.70;;;57.05;;
32399;SDS011;45045;45.440;9.178;2024-01-27T05:27:50;104.05;;;57.25;;
32399;SDS011;45045;45.440;9.178;2024-01-27T05:30:16;88.30;;;55.08;;
32399;SDS011;45045;45.440;9.178;2024-01-27T05:32:41;82.78;;;54.65;;
32399;SDS011;45045;45.440;9.178;2024-01-27T05:35:07;81.93;;;56.78;;
32399;SDS011;45045;45.440;9.178;2024-01-27T05:37:34;90.00;;;57.13;;
32399;SDS011;45045;45.440;9.178;2024-01-27T05:40:00;89.72;;;57.10;;
32399;SDS011;45045;45.440;9.178;2024-01-27T05:42:25;96.07;;;57.38;;
32399;SDS011;45045;45.440;9.178;2024-01-27T05:44:51;98.85;;;61.92;;
32399;SDS011;45045;45.440;9.178;2024-01-27T05:47:17;99.72;;;61.38;;
32399;SDS011;45045;45.440;9.178;2024-01-27T05:49:43;115.68;;;64.00;;
32399;SDS011;45045;45.440;9.178;2024-01-27T05:52:09;116.47;;;61.10;;
32399;SDS011;45045;45.440;9.178;2024-01-27T05:54:35;106.28;;;62.22;;
32399;SDS011;45045;45.440;9.178;2024-01-27T05:57:01;112.60;;;62.20;;
32399;SDS011;45045;45.440;9.178;2024-01-27T05:59:28;106.25;;;61.40;;
32399;SDS011;45045;45.440;9.178;2024-01-27T06:01:54;95.47;;;60.08;;
32399;SDS011;45045;45.440;9.178;2024-01-27T06:04:19;110.90;;;59.88;;
32399;SDS011;45045;45.440;9.178;2024-01-27T06:06:45;113.07;;;60.67;;
32399;SDS011;45045;45.440;9.178;2024-01-27T06:09:10;103.32;;;62.67;;
32399;SDS011;45045;45.440;9.178;2024-01-27T06:11:36;103.55;;;62.85;;
32399;SDS011;45045;45.440;9.178;2024-01-27T06:14:02;106.95;;;62.25;;
32399;SDS011;45045;45.440;9.178;2024-01-27T06:16:28;108.40;;;60.55;;
32399;SDS011;45045;45.440;9.178;2024-01-27T06:18:54;105.78;;;61.38;;
32399;SDS011;45045;45.440;9.178;2024-01-27T06:21:20;107.15;;;61.45;;
32399;SDS011;45045;45.440;9.178;2024-01-27T06:23:45;111.72;;;63.10;;
32399;SDS011;45045;45.440;9.178;2024-01-27T06:26:12;105.60;;;64.07;;
32399;SDS011;45045;45.440;9.178;2024-01-27T06:28:38;119.28;;;63.58;;
32399;SDS011;45045;45.440;9.178;2024-01-27T06:31:04;117.13;;;64.40;;
32399;SDS011;45045;45.440;9.178;2024-01-27T06:33:30;108.68;;;62.03;;
32399;SDS011;45045;45.440;9.178;2024-01-27T06:35:56;130.95;;;65.75;;
32399;SDS011;45045;45.440;9.178;2024-01-27T06:38:23;127.45;;;66.75;;
32399;SDS011;45045;45.440;9.178;2024-01-27T06:40:48;117.47;;;64.43;;
32399;SDS011;45045;45.440;9.178;2024-01-27T06:43:14;123.97;;;66.93;;
32399;SDS011;45045;45.440;9.178;2024-01-27T06:45:40;126.47;;;65.82;;
32399;SDS011;45045;45.440;9.178;2024-01-27T06:48:05;133.38;;;66.40;;
32399;SDS011;45045;45.440;9.178;2024-01-27T06:50:32;124.90;;;65.82;;
32399;SDS011;45045;45.440;9.178;2024-01-27T06:52:58;127.05;;;65.95;;
32399;SDS011;45045;45.440;9.178;2024-01-27T06:55:24;127.72;;;69.18;;
32399;SDS011;45045;45.440;9.178;2024-01-27T06:57:50;130.25;;;67.60;;
32399;SDS011;45045;45.440;9.178;2024-01-27T07:00:16;128.73;;;65.68;;
32399;SDS011;45045;45.440;9.178;2024-01-27T07:02:42;133.18;;;68.03;;
32399;SDS011;45045;45.440;9.178;2024-01-27T07:05:08;130.57;;;67.85;;
32399;SDS011;45045;45.440;9.178;2024-01-27T07:07:34;130.88;;;68.70;;
32399;SDS011;45045;45.440;9.178;2024-01-27T07:10:00;134.85;;;65.07;;
32399;SDS011;45045;45.440;9.178;2024-01-27T07:12:25;118.22;;;64.60;;
32399;SDS011;45045;45.440;9.178;2024-01-27T07:14:51;119.35;;;66.15;;
32399;SDS011;45045;45.440;9.178;2024-01-27T07:17:17;126.93;;;65.22;;
32399;SDS011;45045;45.440;9.178;2024-01-27T07:19:43;119.82;;;67.03;;
32399;SDS011;45045;45.440;9.178;2024-01-27T07:22:08;118.68;;;65.32;;
32399;SDS011;45045;45.440;9.178;2024-01-27T07:24:35;121.53;;;66.30;;
32399;SDS011;45045;45.440;9.178;2024-01-27T07:27:00;110.78;;;62.97;;
32399;SDS011;45045;45.440;9.178;2024-01-27T07:29:26;127.38;;;67.60;;
32399;SDS011;45045;45.440;9.178;2024-01-27T07:31:52;126.57;;;67.70;;
32399;SDS011;45045;45.440;9.178;2024-01-27T07:34:18;118.97;;;66.05;;
32399;SDS011;45045;45.440;9.178;2024-01-27T07:36:44;126.97;;;67.07;;
32399;SDS011;45045;45.440;9.178;2024-01-27T07:39:10;122.47;;;65.55;;
32399;SDS011;45045;45.440;9.178;2024-01-27T07:41:36;119.43;;;66.05;;
32399;SDS011;45045;45.440;9.178;2024-01-27T07:44:10;120.05;;;65.43;;
32399;SDS011;45045;45.440;9.178;2024-01-27T07:46:38;113.40;;;64.72;;
32399;SDS011;45045;45.440;9.178;2024-01-27T07:49:07;107.40;;;62.65;;
32399;SDS011;45045;45.440;9.178;2024-01-27T07:51:34;102.03;;;60.88;;
32399;SDS011;45045;45.440;9.178;2024-01-27T07:54:00;98.30;;;60.15;;
32399;SDS011;45045;45.440;9.178;2024-01-27T07:56:26;88.72;;;58.78;;
32399;SDS011;45045;45.440;9.178;2024-01-27T07:58:52;89.88;;;59.25;;
32399;SDS011;45045;45.440;9.178;2024-01-27T08:01:18;84.88;;;55.72;;
32399;SDS011;45045;45.440;9.178;2024-01-27T08:03:44;84.93;;;57.00;;
32399;SDS011;45045;45.440;9.178;2024-01-27T08:06:14;82.78;;;54.72;;
32399;SDS011;45045;45.440;9.178;2024-01-27T08:08:43;77.25;;;55.72;;
32399;SDS011;45045;45.440;9.178;2024-01-27T08:11:15;81.30;;;54.30;;
32399;SDS011;45045;45.440;9.178;2024-01-27T08:13:42;77.82;;;54.67;;
32399;SDS011;45045;45.440;9.178;2024-01-27T08:16:08;77.03;;;53.20;;
32399;SDS011;45045;45.440;9.178;2024-01-27T08:18:41;73.90;;;52.85;;
32399;SDS011;45045;45.440;9.178;2024-01-27T08:21:09;80.68;;;53.47;;
32399;SDS011;45045;45.440;9.178;2024-01-27T08:23:34;75.25;;;53.65;;
32399;SDS011;45045;45.440;9.178;2024-01-27T08:26:00;78.40;;;52.90;;
32399;SDS011;45045;45.440;9.178;2024-01-27T08:28:26;74.20;;;54.15;;
32399;SDS011;45045;45.440;9.178;2024-01-27T08:30:52;79.40;;;55.90;;
32399;SDS011;45045;45.440;9.178;2024-01-27T08:33:19;88.65;;;54.55;;
32399;SDS011;45045;45.440;9.178;2024-01-27T08:35:47;79.75;;;54.63;;
32399;SDS011;45045;45.440;9.178;2024-01-27T08:38:13;83.28;;;53.90;;
32399;SDS011;45045;45.440;9.178;2024-01-27T08:40:39;79.20;;;53.60;;
32399;SDS011;45045;45.440;9.178;2024-01-27T08:43:04;84.90;;;54.00;;
32399;SDS011;45045;45.440;9.178;2024-01-27T08:45:31;82.43;;;55.30;;
32399;SDS011;45045;45.440;9.178;2024-01-27T08:47:56;84.85;;;56.63;;
32399;SDS011;45045;45.440;9.178;2024-01-27T08:50:22;89.32;;;58.03;;
32399;SDS011;45045;45.440;9.178;2024-01-27T08:52:48;96.15;;;58.20;;
32399;SDS011;45045;45.440;9.178;2024-01-27T08:55:13;96.15;;;60.72;;
32399;SDS011;45045;45.440;9.178;2024-01-27T08:57:41;100.95;;;60.83;;
32399;SDS011;45045;45.440;9.178;2024-01-27T09:00:07;117.18;;;65.00;;
32399;SDS011;45045;45.440;9.178;2024-01-27T09:02:34;107.90;;;65.35;;
32399;SDS011;45045;45.440;9.178;2024-01-27T09:05:00;111.10;;;65.05;;
32399;SDS011;45045;45.440;9.178;2024-01-27T09:07:25;110.90;;;64.55;;
32399;SDS011;45045;45.440;9.178;2024-01-27T09:09:51;113.35;;;62.92;;
32399;SDS011;45045;45.440;9.178;2024-01-27T09:12:16;113.90;;;66.88;;
32399;SDS011;45045;45.440;9.178;2024-01-27T09:14:42;105.60;;;62.15;;
32399;SDS011;45045;45.440;9.178;2024-01-27T09:17:08;105.00;;;61.60;;
32399;SDS011;45045;45.440;9.178;2024-01-27T09:19:33;95.50;;;59.75;;
32399;SDS011;45045;45.440;9.178;2024-01-27T09:21:59;97.85;;;60.80;;
32399;SDS011;45045;45.440;9.178;2024-01-27T09:24:24;97.18;;;58.58;;
32399;SDS011;45045;45.440;9.178;2024-01-27T09:26:50;85.30;;;56.38;;
32399;SDS011;45045;45.440;9.178;2024-01-27T09:29:16;85.47;;;56.97;;
32399;SDS011;45045;45.440;9.178;2024-01-27T09:31:42;84.10;;;57.60;;
32399;SDS011;45045;45.440;9.178;2024-01-27T09:34:08;84.82;;;56.60;;
32399;SDS011;45045;45.440;9.178;2024-01-27T09:36:33;88.72;;;59.50;;
32399;SDS011;45045;45.440;9.178;2024-01-27T09:38:59;87.13;;;59.42;;
32399;SDS011;45045;45.440;9.178;2024-01-27T09:41:25;80.28;;;55.72;;
32399;SDS011;45045;45.440;9.178;2024-01-27T09:43:56;84.50;;;58.42;;
32399;SDS011;45045;45.440;9.178;2024-01-27T09:46:25;80.72;;;57.60;;
32399;SDS011;45045;45.440;9.178;2024-01-27T09:48:52;78.65;;;56.53;;
32399;SDS011;45045;45.440;9.178;2024-01-27T09:51:18;72.55;;;54.00;;
32399;SDS011;45045;45.440;9.178;2024-01-27T09:53:45;77.43;;;56.15;;
32399;SDS011;45045;45.440;9.178;2024-01-27T09:56:10;76.70;;;54.60;;
32399;SDS011;45045;45.440;9.178;2024-01-27T09:58:44;74.43;;;53.88;;
32399;SDS011;45045;45.440;9.178;2024-01-27T10:01:10;72.43;;;52.75;;
32399;SDS011;45045;45.440;9.178;2024-01-27T10:03:38;70.03;;;52.08;;
32399;SDS011;45045;45.440;9.178;2024-01-27T10:06:09;72.13;;;53.20;;
32399;SDS011;45045;45.440;9.178;2024-01-27T10:08:35;70.00;;;53.05;;
32399;SDS011;45045;45.440;9.178;2024-01-27T10:11:06;71.70;;;52.33;;
32399;SDS011;45045;45.440;9.178;2024-01-27T10:18:29;64.47;;;50.55;;
32399;SDS011;45045;45.440;9.178;2024-01-27T10:20:55;70.25;;;52.03;;
32399;SDS011;45045;45.440;9.178;2024-01-27T10:23:21;67.60;;;51.40;;
32399;SDS011;45045;45.440;9.178;2024-01-27T10:25:47;68.43;;;52.10;;
32399;SDS011;45045;45.440;9.178;2024-01-27T10:28:13;66.45;;;51.00;;
32399;SDS011;45045;45.440;9.178;2024-01-27T10:30:39;65.45;;;50.47;;
32399;SDS011;45045;45.440;9.178;2024-01-27T10:33:07;65.80;;;51.17;;
32399;SDS011;45045;45.440;9.178;2024-01-27T10:35:33;66.35;;;50.72;;
32399;SDS011;45045;45.440;9.178;2024-01-27T10:37:59;63.05;;;48.53;;
32399;SDS011;45045;45.440;9.178;2024-01-27T10:40:24;59.05;;;46.50;;
32399;SDS011;45045;45.440;9.178;2024-01-27T10:45:34;54.40;;;43.95;;
32399;SDS011;45045;45.440;9.178;2024-01-27T10:48:02;55.17;;;44.10;;
32399;SDS011;45045;45.440;9.178;2024-01-27T10:50:28;48.78;;;40.78;;
32399;SDS011;45045;45.440;9.178;2024-01-27T10:52:55;48.60;;;40.70;;
32399;SDS011;45045;45.440;9.178;2024-01-27T10:55:22;48.65;;;40.75;;
32399;SDS011;45045;45.440;9.178;2024-01-27T10:57:49;50.15;;;39.80;;
32399;SDS011;45045;45.440;9.178;2024-01-27T11:00:18;47.17;;;39.88;;
32399;SDS011;45045;45.440;9.178;2024-01-27T11:02:44;47.92;;;40.35;;
32399;SDS011;45045;45.440;9.178;2024-01-27T11:05:11;47.67;;;40.47;;
32399;SDS011;45045;45.440;9.178;2024-01-27T11:07:40;46.90;;;38.95;;
32399;SDS011;45045;45.440;9.178;2024-01-27T11:10:07;47.70;;;39.65;;
32399;SDS011;45045;45.440;9.178;2024-01-27T11:12:35;46.42;;;39.80;;
32399;SDS011;45045;45.440;9.178;2024-01-27T11:15:02;47.17;;;38.63;;
32399;SDS011;45045;45.440;9.178;2024-01-27T11:17:37;42.95;;;37.20;;
32399;SDS011;45045;45.440;9.178;2024-01-27T11:20:09;51.22;;;37.45;;
32399;SDS011;45045;45.440;9.178;2024-01-27T11:22:36;49.35;;;37.85;;
32399;SDS011;45045;45.440;9.178;2024-01-27T11:27:39;48.58;;;37.33;;
32399;SDS011;45045;45.440;9.178;2024-01-27T11:30:06;48.10;;;38.67;;
32399;SDS011;45045;45.440;9.178;2024-01-27T11:32:49;45.42;;;37.22;;
32399;SDS011;45045;45.440;9.178;2024-01-27T11:35:17;46.20;;;37.30;;
32399;SDS011;45045;45.440;9.178;2024-01-27T11:37:42;48.75;;;38.13;;
32399;SDS011;45045;45.440;9.178;2024-01-27T11:40:08;49.13;;;39.60;;
32399;SDS011;45045;45.440;9.178;2024-01-27T11:42:35;49.63;;;37.92;;
32399;SDS011;45045;45.440;9.178;2024-01-27T11:45:01;45.22;;;36.03;;
32399;SDS011;45045;45.440;9.178;2024-01-27T11:47:27;46.22;;;38.92;;
32399;SDS011;45045;45.440;9.178;2024-01-27T11:49:54;53.70;;;42.75;;
32399;SDS011;45045;45.440;9.178;2024-01-27T11:52:22;52.35;;;43.22;;
32399;SDS011;45045;45.440;9.178;2024-01-27T11:54:58;48.08;;;39.38;;
32399;SDS011;45045;45.440;9.178;2024-01-27T11:57:25;52.33;;;43.70;;
32399;SDS011;45045;45.440;9.178;2024-01-27T11:59:52;53.60;;;42.72;;
32399;SDS011;45045;45.440;9.178;2024-01-27T12:02:18;52.85;;;42.00;;
32399;SDS011;45045;45.440;9.178;2024-01-27T12:04:45;59.30;;;46.08;;
32399;SDS011;45045;45.440;9.178;2024-01-27T12:07:13;47.75;;;39.28;;
32399;SDS011;45045;45.440;9.178;2024-01-27T12:09:39;47.53;;;40.78;;
32399;SDS011;45045;45.440;9.178;2024-01-27T12:12:05;45.75;;;38.22;;
32399;SDS011;45045;45.440;9.178;2024-01-27T12:14:41;46.85;;;39.67;;
32399;SDS011;45045;45.440;9.178;2024-01-27T12:17:14;46.60;;;37.85;;
32399;SDS011;45045;45.440;9.178;2024-01-27T12:19:50;47.42;;;39.55;;
32399;SDS011;45045;45.440;9.178;2024-01-27T12:22:27;49.60;;;39.25;;
32399;SDS011;45045;45.440;9.178;2024-01-27T12:24:55;42.75;;;35.75;;
32399;SDS011;45045;45.440;9.178;2024-01-27T12:27:32;47.78;;;36.58;;
32399;SDS011;45045;45.440;9.178;2024-01-27T12:29:59;46.75;;;36.22;;
32399;SDS011;45045;45.440;9.178;2024-01-27T12:32:25;43.50;;;35.58;;
32399;SDS011;45045;45.440;9.178;2024-01-27T12:34:52;41.22;;;33.28;;
32399;SDS011;45045;45.440;9.178;2024-01-27T12:37:20;41.63;;;34.75;;
32399;SDS011;45045;45.440;9.178;2024-01-27T12:39:47;47.45;;;38.35;;
32399;SDS011;45045;45.440;9.178;2024-01-27T12:42:15;41.05;;;34.85;;
32399;SDS011;45045;45.440;9.178;2024-01-27T12:44:42;47.00;;;36.45;;
32399;SDS011;45045;45.440;9.178;2024-01-27T12:47:07;46.13;;;36.88;;
32399;SDS011;45045;45.440;9.178;2024-01-27T12:49:36;54.33;;;38.50;;
32399;SDS011;45045;45.440;9.178;2024-01-27T12:52:02;46.30;;;37.42;;
32399;SDS011;45045;45.440;9.178;2024-01-27T12:54:28;41.40;;;36.13;;
32399;SDS011;45045;45.440;9.178;2024-01-27T12:56:56;45.83;;;35.97;;
32399;SDS011;45045;45.440;9.178;2024-01-27T12:59:22;44.13;;;36.05;;
32399;SDS011;45045;45.440;9.178;2024-01-27T13:01:50;44.38;;;36.55;;
32399;SDS011;45045;45.440;9.178;2024-01-27T13:04:17;45.72;;;37.30;;
32399;SDS011;45045;45.440;9.178;2024-01-27T13:06:43;42.35;;;36.42;;
32399;SDS011;45045;45.440;9.178;2024-01-27T13:09:10;43.35;;;36.45;;
32399;SDS011;45045;45.440;9.178;2024-01-27T13:11:39;44.10;;;35.85;;
32399;SDS011;45045;45.440;9.178;2024-01-27T13:14:04;47.13;;;35.55;;
32399;SDS011;45045;45.440;9.178;2024-01-27T13:16:31;44.90;;;36.53;;
32399;SDS011;45045;45.440;9.178;2024-01-27T13:18:57;40.63;;;35.65;;
32399;SDS011;45045;45.440;9.178;2024-01-27T13:21:23;49.97;;;36.45;;
32399;SDS011;45045;45.440;9.178;2024-01-27T13:23:48;44.05;;;36.28;;
32399;SDS011;45045;45.440;9.178;2024-01-27T13:26:14;49.55;;;36.08;;
32399;SDS011;45045;45.440;9.178;2024-01-27T13:28:41;42.53;;;35.67;;
32399;SDS011;45045;45.440;9.178;2024-01-27T13:31:06;43.20;;;35.80;;
32399;SDS011;45045;45.440;9.178;2024-01-27T13:33:32;48.22;;;35.83;;
32399;SDS011;45045;45.440;9.178;2024-01-27T13:35:59;47.25;;;35.58;;
32399;SDS011;45045;45.440;9.178;2024-01-27T13:38:24;51.13;;;40.35;;
32399;SDS011;45045;45.440;9.178;2024-01-27T13:40:51;44.15;;;36.28;;
32399;SDS011;45045;45.440;9.178;2024-01-27T13:43:16;45.88;;;36.90;;
32399;SDS011;45045;45.440;9.178;2024-01-27T13:45:42;46.92;;;37.50;;
32399;SDS011;45045;45.440;9.178;2024-01-27T13:48:08;41.72;;;34.88;;
32399;SDS011;45045;45.440;9.178;2024-01-27T13:50:34;40.50;;;34.90;;
32399;SDS011;45045;45.440;9.178;2024-01-27T13:53:00;40.25;;;34.30;;
32399;SDS011;45045;45.440;9.178;2024-01-27T13:55:25;42.47;;;34.72;;
32399;SDS011;45045;45.440;9.178;2024-01-27T13:57:51;39.92;;;34.47;;
32399;SDS011;45045;45.440;9.178;2024-01-27T14:00:17;40.85;;;34.42;;
32399;SDS011;45045;45.440;9.178;2024-01-27T14:02:43;40.90;;;34.13;;
32399;SDS011;45045;45.440;9.178;2024-01-27T14:05:09;42.20;;;33.20;;
32399;SDS011;45045;45.440;9.178;2024-01-27T14:07:35;41.75;;;34.33;;
32399;SDS011;45045;45.440;9.178;2024-01-27T14:10:01;41.38;;;33.85;;
32399;SDS011;45045;45.440;9.178;2024-01-27T14:12:27;54.70;;;43.92;;
32399;SDS011;45045;45.440;9.178;2024-01-27T14:14:53;42.78;;;34.35;;
32399;SDS011;45045;45.440;9.178;2024-01-27T14:17:27;64.90;;;49.85;;
32399;SDS011;45045;45.440;9.178;2024-01-27T14:19:52;73.10;;;56.90;;
32399;SDS011;45045;45.440;9.178;2024-01-27T14:22:18;42.15;;;35.58;;
32399;SDS011;45045;45.440;9.178;2024-01-27T14:24:44;53.47;;;42.80;;
32399;SDS011;45045;45.440;9.178;2024-01-27T14:27:10;43.60;;;34.70;;